ASL89C LYBE-LIPE
Flight info
| Callsign | ASL89C |
|---|---|
| Flight time | N/A |
| Altitude | 16000 |
| Route | TUVAR DCT PEVAL/N0272F170 DCT ROSKA DCT BAMEK |
| Aircraft | AT76/M-SDFGIRY/S |
Departure
| Time | 2026-04-30 14:26 |
|---|---|
| Airport | Belgrade Nikola Tesla Airport (LYBE) |
Arrival
| Time | N/A |
|---|---|
| Airport | Bologna Guglielmo Marconi Airport (LIPE) |
| Time | Latitude | Longitude | Altitude | Speed | Heading |
|---|---|---|---|---|---|
| 2026-04-30 13:44 | 44.81863 | 20.29538 | 303 ft | 0 kts | 122° |
| 2026-04-30 14:18 | 44.81865 | 20.29534 | 303 ft | 1 kts | 122° |
| 2026-04-30 14:18 | 44.81869 | 20.29524 | 305 ft | 2 kts | 122° |
| 2026-04-30 14:18 | 44.81882 | 20.29496 | 304 ft | 2 kts | 122° |
| 2026-04-30 14:19 | 44.81892 | 20.29467 | 304 ft | 2 kts | 53° |
| 2026-04-30 14:19 | 44.81881 | 20.29453 | 305 ft | 1 kts | 35° |
| 2026-04-30 14:19 | 44.81888 | 20.29459 | 304 ft | 2 kts | 32° |
| 2026-04-30 14:20 | 44.81903 | 20.29472 | 304 ft | 3 kts | 32° |
| 2026-04-30 14:20 | 44.81931 | 20.29497 | 305 ft | 6 kts | 31° |
| 2026-04-30 14:20 | 44.82019 | 20.29574 | 303 ft | 8 kts | 32° |
| 2026-04-30 14:21 | 44.82068 | 20.29619 | 304 ft | 9 kts | 43° |
| 2026-04-30 14:21 | 44.82059 | 20.29718 | 304 ft | 15 kts | 121° |
| 2026-04-30 14:21 | 44.81911 | 20.30051 | 305 ft | 22 kts | 122° |
| 2026-04-30 14:22 | 44.81831 | 20.30233 | 304 ft | 17 kts | 122° |
| 2026-04-30 14:22 | 44.81717 | 20.30490 | 304 ft | 18 kts | 122° |
| 2026-04-30 14:22 | 44.81648 | 20.30646 | 305 ft | 20 kts | 122° |
| 2026-04-30 14:23 | 44.81496 | 20.30987 | 304 ft | 21 kts | 122° |
| 2026-04-30 14:23 | 44.81335 | 20.31348 | 304 ft | 22 kts | 122° |
| 2026-04-30 14:24 | 44.81177 | 20.31706 | 303 ft | 22 kts | 122° |
| 2026-04-30 14:24 | 44.81098 | 20.31886 | 304 ft | 22 kts | 122° |
| 2026-04-30 14:25 | 44.80998 | 20.32211 | 303 ft | 17 kts | 65° |
| 2026-04-30 14:25 | 44.81184 | 20.32309 | 303 ft | 15 kts | 2° |
| 2026-04-30 14:26 | 44.81337 | 20.32052 | 305 ft | 48 kts | 302° |
| 2026-04-30 14:26 | 44.81617 | 20.31423 | 303 ft | 103 kts | 302° |
| 2026-04-30 14:26 | 44.82457 | 20.29482 | 1147 ft | 118 kts | 304° |
| 2026-04-30 14:27 | 44.82851 | 20.28485 | 1755 ft | 119 kts | 300° |
| 2026-04-30 14:27 | 44.83153 | 20.27338 | 1976 ft | 135 kts | 295° |
| 2026-04-30 14:27 | 44.83480 | 20.25985 | 2076 ft | 160 kts | 294° |
| 2026-04-30 14:28 | 44.84220 | 20.22831 | 2855 ft | 171 kts | 292° |
| 2026-04-30 14:28 | 44.84594 | 20.21231 | 3304 ft | 173 kts | 293° |
| 2026-04-30 14:28 | 44.84986 | 20.19631 | 3743 ft | 173 kts | 294° |
| 2026-04-30 14:28 | 44.85394 | 20.18029 | 4165 ft | 174 kts | 294° |
| 2026-04-30 14:29 | 44.86216 | 20.14787 | 5053 ft | 177 kts | 294° |
| 2026-04-30 14:29 | 44.86906 | 20.12069 | 5766 ft | 177 kts | 294° |
| 2026-04-30 14:30 | 44.88304 | 20.06528 | 7139 ft | 181 kts | 294° |
| 2026-04-30 14:31 | 44.89156 | 20.03132 | 7892 ft | 186 kts | 294° |
| 2026-04-30 14:31 | 44.90025 | 19.99676 | 8664 ft | 189 kts | 294° |
| 2026-04-30 14:31 | 44.90465 | 19.97923 | 9036 ft | 191 kts | 294° |
| 2026-04-30 14:32 | 44.91360 | 19.94363 | 9806 ft | 194 kts | 294° |
| 2026-04-30 14:32 | 44.91805 | 19.92581 | 10176 ft | 196 kts | 294° |
| 2026-04-30 14:32 | 44.92260 | 19.90761 | 10510 ft | 197 kts | 295° |
| 2026-04-30 14:33 | 44.92716 | 19.88939 | 10855 ft | 197 kts | 295° |
| 2026-04-30 14:33 | 44.93629 | 19.85274 | 11520 ft | 199 kts | 295° |
| 2026-04-30 14:33 | 44.94091 | 19.83428 | 11849 ft | 199 kts | 295° |
| 2026-04-30 14:34 | 44.94550 | 19.81579 | 12174 ft | 200 kts | 295° |
| 2026-04-30 14:34 | 44.95012 | 19.79726 | 12500 ft | 200 kts | 295° |
| 2026-04-30 14:34 | 44.95473 | 19.77871 | 12830 ft | 200 kts | 295° |
| 2026-04-30 14:34 | 44.95934 | 19.76006 | 13152 ft | 201 kts | 295° |
| 2026-04-30 14:35 | 44.96705 | 19.72903 | 13669 ft | 202 kts | 295° |
| 2026-04-30 14:35 | 44.97328 | 19.70387 | 14077 ft | 203 kts | 295° |
| 2026-04-30 14:35 | 44.97794 | 19.68502 | 14352 ft | 203 kts | 295° |
| 2026-04-30 14:36 | 44.98261 | 19.66619 | 14625 ft | 204 kts | 295° |
| 2026-04-30 14:36 | 44.98730 | 19.64723 | 14897 ft | 204 kts | 295° |
| 2026-04-30 14:36 | 44.99198 | 19.62826 | 15160 ft | 205 kts | 295° |
| 2026-04-30 14:36 | 44.99659 | 19.60952 | 15416 ft | 205 kts | 295° |
| 2026-04-30 14:37 | 45.00128 | 19.59050 | 15666 ft | 205 kts | 295° |
| 2026-04-30 14:37 | 45.00598 | 19.57142 | 15917 ft | 206 kts | 295° |
| 2026-04-30 14:37 | 45.01069 | 19.55224 | 16131 ft | 208 kts | 295° |
| 2026-04-30 14:37 | 45.01556 | 19.53256 | 16217 ft | 216 kts | 294° |
| 2026-04-30 14:38 | 45.02064 | 19.51203 | 16259 ft | 225 kts | 294° |
| 2026-04-30 14:38 | 45.02589 | 19.49070 | 16287 ft | 234 kts | 294° |
| 2026-04-30 14:38 | 45.03130 | 19.46864 | 16295 ft | 241 kts | 294° |
| 2026-04-30 14:38 | 45.03684 | 19.44597 | 16298 ft | 247 kts | 293° |
| 2026-04-30 14:39 | 45.04249 | 19.42279 | 16299 ft | 252 kts | 293° |
| 2026-04-30 14:39 | 45.04824 | 19.39922 | 16297 ft | 255 kts | 293° |
| 2026-04-30 14:39 | 45.05399 | 19.37561 | 16297 ft | 258 kts | 293° |
| 2026-04-30 14:40 | 45.06584 | 19.32725 | 16298 ft | 262 kts | 293° |
| 2026-04-30 14:40 | 45.07178 | 19.30280 | 16301 ft | 263 kts | 293° |
| 2026-04-30 14:40 | 45.07775 | 19.27818 | 16303 ft | 264 kts | 293° |
| 2026-04-30 14:40 | 45.08374 | 19.25354 | 16305 ft | 265 kts | 293° |
| 2026-04-30 14:41 | 45.08973 | 19.22882 | 16304 ft | 266 kts | 293° |
| 2026-04-30 14:41 | 45.09572 | 19.20412 | 16301 ft | 266 kts | 293° |
| 2026-04-30 14:41 | 45.10174 | 19.17927 | 16307 ft | 266 kts | 293° |
| 2026-04-30 14:41 | 45.10774 | 19.15446 | 16308 ft | 267 kts | 293° |
| 2026-04-30 14:42 | 45.11373 | 19.12967 | 16306 ft | 267 kts | 293° |
| 2026-04-30 14:42 | 45.11975 | 19.10476 | 16303 ft | 267 kts | 293° |
| 2026-04-30 14:42 | 45.12573 | 19.07984 | 16307 ft | 267 kts | 292° |
| 2026-04-30 14:42 | 45.12943 | 19.05401 | 16310 ft | 270 kts | 279° |
| 2026-04-30 14:43 | 45.13046 | 19.02749 | 16307 ft | 271 kts | 276° |
| 2026-04-30 14:43 | 45.13113 | 19.00073 | 16307 ft | 271 kts | 277° |
| 2026-04-30 14:43 | 45.13216 | 18.97410 | 16303 ft | 272 kts | 278° |
| 2026-04-30 14:43 | 45.13359 | 18.94773 | 16304 ft | 272 kts | 279° |
| 2026-04-30 14:44 | 45.13518 | 18.92102 | 16305 ft | 272 kts | 279° |
| 2026-04-30 14:44 | 45.13669 | 18.89434 | 16312 ft | 272 kts | 279° |
| 2026-04-30 14:44 | 45.13819 | 18.86759 | 16309 ft | 272 kts | 278° |
| 2026-04-30 14:44 | 45.13968 | 18.84086 | 16312 ft | 272 kts | 278° |
| 2026-04-30 14:45 | 45.14065 | 18.82323 | 16313 ft | 272 kts | 279° |
| 2026-04-30 14:45 | 45.14212 | 18.79648 | 16313 ft | 272 kts | 279° |
| 2026-04-30 14:45 | 45.14407 | 18.76107 | 16319 ft | 272 kts | 279° |
| 2026-04-30 14:45 | 45.14553 | 18.73428 | 16316 ft | 272 kts | 278° |
| 2026-04-30 14:46 | 45.14651 | 18.71618 | 16316 ft | 273 kts | 278° |
| 2026-04-30 14:46 | 45.14796 | 18.68945 | 16319 ft | 273 kts | 279° |
| 2026-04-30 14:46 | 45.14940 | 18.66259 | 16317 ft | 273 kts | 278° |
| 2026-04-30 14:46 | 45.15080 | 18.63612 | 16315 ft | 273 kts | 278° |
| 2026-04-30 14:47 | 45.15223 | 18.60930 | 16320 ft | 273 kts | 278° |
| 2026-04-30 14:47 | 45.15369 | 18.58213 | 16321 ft | 273 kts | 278° |
| 2026-04-30 14:47 | 45.15509 | 18.55562 | 16318 ft | 273 kts | 278° |
| 2026-04-30 14:47 | 45.15650 | 18.52881 | 16322 ft | 273 kts | 278° |
| 2026-04-30 14:48 | 45.15791 | 18.50198 | 16314 ft | 273 kts | 278° |
| 2026-04-30 14:48 | 45.15930 | 18.47508 | 16325 ft | 273 kts | 278° |
| 2026-04-30 14:48 | 45.16069 | 18.44825 | 16325 ft | 273 kts | 278° |
| 2026-04-30 14:48 | 45.16207 | 18.42141 | 16327 ft | 273 kts | 278° |
| 2026-04-30 14:49 | 45.16346 | 18.39451 | 16328 ft | 273 kts | 278° |
| 2026-04-30 14:49 | 45.16482 | 18.36766 | 16328 ft | 273 kts | 278° |
| 2026-04-30 14:49 | 45.16620 | 18.34080 | 16328 ft | 273 kts | 278° |
| 2026-04-30 14:49 | 45.16757 | 18.31386 | 16335 ft | 274 kts | 278° |
| 2026-04-30 14:50 | 45.17026 | 18.26038 | 16324 ft | 274 kts | 278° |
| 2026-04-30 14:50 | 45.17159 | 18.23349 | 16332 ft | 273 kts | 278° |
| 2026-04-30 14:51 | 45.17429 | 18.17965 | 16330 ft | 274 kts | 278° |
| 2026-04-30 14:51 | 45.17560 | 18.15273 | 16328 ft | 274 kts | 278° |
| 2026-04-30 14:51 | 45.17823 | 18.09886 | 16326 ft | 274 kts | 278° |
| 2026-04-30 14:52 | 45.17953 | 18.07197 | 16330 ft | 273 kts | 278° |
| 2026-04-30 14:52 | 45.18214 | 18.01858 | 16331 ft | 273 kts | 278° |
| 2026-04-30 14:52 | 45.18341 | 17.99163 | 16338 ft | 273 kts | 278° |
| 2026-04-30 14:53 | 45.18596 | 17.93775 | 16335 ft | 273 kts | 278° |
| 2026-04-30 14:53 | 45.18724 | 17.91087 | 16331 ft | 273 kts | 278° |
| 2026-04-30 14:54 | 45.18973 | 17.85707 | 16337 ft | 274 kts | 278° |
| 2026-04-30 14:54 | 45.19225 | 17.80327 | 16332 ft | 273 kts | 278° |
| 2026-04-30 14:55 | 45.19470 | 17.74976 | 16343 ft | 274 kts | 277° |
| 2026-04-30 14:55 | 45.19592 | 17.72281 | 16340 ft | 274 kts | 277° |
| 2026-04-30 14:55 | 45.19836 | 17.66880 | 16334 ft | 274 kts | 277° |
| 2026-04-30 14:56 | 45.20075 | 17.61495 | 16335 ft | 274 kts | 277° |
| 2026-04-30 14:56 | 45.20313 | 17.56109 | 16336 ft | 273 kts | 277° |
| 2026-04-30 14:57 | 45.20432 | 17.53412 | 16334 ft | 273 kts | 277° |
| 2026-04-30 14:57 | 45.20665 | 17.48030 | 16335 ft | 273 kts | 277° |
| 2026-04-30 14:58 | 45.20898 | 17.42647 | 16335 ft | 274 kts | 277° |
| 2026-04-30 14:58 | 45.21012 | 17.39955 | 16330 ft | 273 kts | 277° |
| 2026-04-30 14:58 | 45.21238 | 17.34596 | 16332 ft | 273 kts | 277° |
| 2026-04-30 14:59 | 45.21463 | 17.29212 | 16332 ft | 273 kts | 277° |
| 2026-04-30 15:00 | 45.21795 | 17.21142 | 16330 ft | 273 kts | 277° |
| 2026-04-30 15:00 | 45.22013 | 17.15767 | 16332 ft | 273 kts | 277° |
| 2026-04-30 15:01 | 45.22230 | 17.10386 | 16338 ft | 273 kts | 277° |
| 2026-04-30 15:01 | 45.22336 | 17.07707 | 16337 ft | 273 kts | 277° |
| 2026-04-30 15:01 | 45.22548 | 17.02331 | 16334 ft | 273 kts | 277° |
| 2026-04-30 15:02 | 45.22655 | 16.99647 | 16337 ft | 273 kts | 277° |
| 2026-04-30 15:02 | 45.22760 | 16.96962 | 16337 ft | 273 kts | 277° |
| 2026-04-30 15:03 | 45.23067 | 16.88929 | 16336 ft | 273 kts | 277° |
| 2026-04-30 15:03 | 45.23271 | 16.83551 | 16334 ft | 273 kts | 277° |
| 2026-04-30 15:04 | 45.23471 | 16.78173 | 16336 ft | 273 kts | 277° |
| 2026-04-30 15:04 | 45.23766 | 16.70113 | 16332 ft | 273 kts | 277° |
| 2026-04-30 15:05 | 45.24058 | 16.62045 | 16329 ft | 273 kts | 277° |
| 2026-04-30 15:06 | 45.24246 | 16.56694 | 16334 ft | 273 kts | 277° |
| 2026-04-30 15:06 | 45.24436 | 16.51319 | 16337 ft | 273 kts | 277° |
| 2026-04-30 15:07 | 45.24624 | 16.45918 | 16333 ft | 274 kts | 277° |
| 2026-04-30 15:07 | 45.24806 | 16.40522 | 16335 ft | 274 kts | 277° |
| 2026-04-30 15:08 | 45.24986 | 16.35148 | 16330 ft | 274 kts | 276° |
| 2026-04-30 15:08 | 45.25255 | 16.27042 | 16327 ft | 274 kts | 276° |
| 2026-04-30 15:09 | 45.25429 | 16.21647 | 16330 ft | 274 kts | 276° |
| 2026-04-30 15:09 | 45.25601 | 16.16237 | 16328 ft | 274 kts | 276° |
| 2026-04-30 15:10 | 45.25772 | 16.10846 | 16330 ft | 274 kts | 276° |
| 2026-04-30 15:11 | 45.26103 | 16.00078 | 16325 ft | 274 kts | 276° |
| 2026-04-30 15:11 | 45.26264 | 15.94670 | 16328 ft | 274 kts | 276° |
| 2026-04-30 15:12 | 45.26502 | 15.86571 | 16327 ft | 273 kts | 276° |
| 2026-04-30 15:13 | 45.26656 | 15.81186 | 16324 ft | 273 kts | 276° |
| 2026-04-30 15:14 | 45.26957 | 15.70461 | 16325 ft | 273 kts | 276° |
| 2026-04-30 15:14 | 45.27180 | 15.62370 | 16317 ft | 272 kts | 276° |
| 2026-04-30 15:16 | 45.27532 | 15.48974 | 16325 ft | 272 kts | 276° |
| 2026-04-30 15:17 | 45.27807 | 15.38201 | 16321 ft | 273 kts | 276° |
| 2026-04-30 15:18 | 45.28131 | 15.24773 | 16317 ft | 273 kts | 276° |
| 2026-04-30 15:19 | 45.28318 | 15.16712 | 16320 ft | 273 kts | 276° |